Time;durP1;ratioP1;P1;durP2;ratioP2;P2;SDS_P1;SDS_P2;PMS_P1;PMS_P2;Temp;Humidity;BMP_temperature;BMP_pressure;BME280_temperature;BME280_humidity;BME280_pressure;Samples;Min_cycle;Max_cycle;Signal;HPM_P1;HPM_P2
2023/04/12 00:02:16;;;;;;;3.70;2.33;;;;;;;1.64;100.00;100494.28;4886087;29;20045;-80
2023/04/12 00:04:42;;;;;;;3.00;1.90;;;;;;;1.61;100.00;100500.31;4896818;29;20139;-78
2023/04/12 00:07:10;;;;;;;3.93;2.53;;;;;;;1.77;100.00;100495.31;4898188;29;20029;-80
2023/04/12 00:09:38;;;;;;;2.50;1.83;;;;;;;1.74;100.00;100496.13;4891351;29;20846;-80
2023/04/12 00:12:05;;;;;;;3.23;1.70;;;;;;;1.55;100.00;100489.81;4897289;29;20045;-79
2023/04/12 00:14:32;;;;;;;2.40;1.77;;;;;;;1.52;100.00;100489.78;4914537;29;20059;-79
2023/04/12 00:16:58;;;;;;;4.17;1.83;;;;;;;1.50;100.00;100494.06;4914093;29;20059;-80
2023/04/12 00:19:26;;;;;;;3.57;1.93;;;;;;;1.48;100.00;100493.19;4877850;29;20057;-80
2023/04/12 00:21:53;;;;;;;2.23;1.70;;;;;;;1.49;100.00;100491.47;4900228;29;20068;-79
2023/04/12 00:24:20;;;;;;;3.90;2.10;;;;;;;1.51;100.00;100481.94;4884307;29;20071;-80
2023/04/12 00:26:46;;;;;;;3.70;1.83;;;;;;;1.60;100.00;100479.47;4898985;29;20041;-80
2023/04/12 00:29:15;;;;;;;3.73;1.90;;;;;;;1.39;100.00;100477.44;4885099;29;20055;-80
2023/04/12 00:31:41;;;;;;;3.33;2.30;;;;;;;1.17;100.00;100476.25;4883062;29;20072;-80
2023/04/12 00:34:08;;;;;;;4.47;1.80;;;;;;;1.16;100.00;100468.44;4899006;29;20051;-80
2023/04/12 00:36:35;;;;;;;5.23;1.80;;;;;;;1.15;100.00;100467.56;4899001;29;20052;-80
2023/04/12 00:39:01;;;;;;;4.27;2.27;;;;;;;1.14;100.00;100473.63;4899506;29;20052;-80
2023/04/12 00:41:28;;;;;;;3.90;2.50;;;;;;;1.23;100.00;100462.47;4898865;29;20059;-79
2023/04/12 00:43:57;;;;;;;5.67;2.77;;;;;;;1.25;100.00;100469.44;4898575;29;20071;-80
2023/04/12 00:46:28;;;;;;;3.57;1.73;;;;;;;1.06;100.00;100481.31;4897569;29;20450;-78
2023/04/12 00:48:56;;;;;;;2.70;1.67;;;;;;;0.96;100.00;100473.34;4898042;29;20131;-79
2023/04/12 00:51:24;;;;;;;2.40;1.90;;;;;;;0.77;100.00;100477.41;4883339;29;20052;-80
2023/04/12 00:53:52;;;;;;;3.87;2.10;;;;;;;0.65;100.00;100480.66;4898841;29;20494;-80
2023/04/12 00:56:22;;;;;;;3.87;1.83;;;;;;;0.61;100.00;100481.47;4899427;29;20053;-79
2023/04/12 00:58:49;;;;;;;1.87;1.57;;;;;;;0.61;100.00;100481.47;4898181;29;20056;-80
2023/04/12 01:01:16;;;;;;;3.20;2.00;;;;;;;0.64;100.00;100491.03;4912031;29;20044;-80
2023/04/12 01:03:43;;;;;;;4.60;2.47;;;;;;;0.66;100.00;100482.41;4898564;29;20045;-79
2023/04/12 01:06:36;;;;;;;2.97;1.80;;;;;;;0.66;100.00;100479.81;4897868;29;20076;-80
2023/04/12 01:09:06;;;;;;;2.83;1.87;;;;;;;0.64;100.00;100480.63;4897276;29;20032;-80
2023/04/12 01:11:44;;;;;;;2.80;2.10;;;;;;;0.66;100.00;100478.94;4899553;29;20045;-80
2023/04/12 01:14:17;;;;;;;2.90;1.90;;;;;;;0.66;100.00;100485.00;4904701;29;20041;-80
2023/04/12 01:16:49;;;;;;;4.07;1.90;;;;;;;0.68;100.00;100477.25;4878606;29;20057;-80
2023/04/12 01:19:35;;;;;;;3.03;1.83;;;;;;;0.58;100.00;100478.78;4878319;29;20380;-80
2023/04/12 01:22:39;;;;;;;4.70;1.70;;;;;;;0.61;100.00;100472.78;4920623;29;20135;-79
2023/04/12 01:25:23;;;;;;;3.42;2.42;;;;;;;0.61;100.00;100465.00;4894821;29;20037;-80
2023/04/12 01:27:53;;;;;;;4.50;1.90;;;;;;;0.71;100.00;100461.69;4881407;29;20052;-80
2023/04/12 01:30:21;;;;;;;5.03;2.57;;;;;;;0.59;100.00;100466.66;4898340;29;20072;-79
2023/04/12 01:32:52;;;;;;;3.43;1.80;;;;;;;0.60;100.00;100455.44;4891459;29;20478;-79
2023/04/12 01:35:20;;;;;;;4.80;2.37;;;;;;;0.72;100.00;100453.03;4904747;29;20072;-79
2023/04/12 01:37:47;;;;;;;3.30;1.53;;;;;;;0.70;100.00;100455.63;4899544;29;20045;-79
2023/04/12 01:40:14;;;;;;;2.43;1.90;;;;;;;0.52;100.00;100451.00;4885699;29;20059;-80
2023/04/12 01:42:40;;;;;;;2.33;1.60;;;;;;;0.46;100.00;100448.28;4900904;29;20045;-80
2023/04/12 01:45:07;;;;;;;4.10;1.67;;;;;;;0.49;100.00;100447.44;4895217;29;20048;-80
2023/04/12 01:47:34;;;;;;;2.63;1.90;;;;;;;0.42;100.00;100451.69;4882311;29;20047;-80
2023/04/12 01:50:22;;;;;;;3.53;2.03;;;;;;;0.47;100.00;100438.75;4871723;29;20053;-79
2023/04/12 01:52:56;;;;;;;2.47;1.40;;;;;;;0.61;100.00;100434.69;4889760;29;20056;-80
2023/04/12 01:55:24;;;;;;;2.75;1.70;;;;;;;0.47;100.00;100434.44;4909160;29;20072;-80
2023/04/12 01:57:52;;;;;;;6.97;1.87;;;;;;;0.40;100.00;100442.97;4888271;29;20479;-79
2023/04/12 02:00:19;;;;;;;3.93;1.60;;;;;;;0.13;100.00;100439.91;4884413;29;20059;-79
2023/04/12 02:02:45;;;;;;;4.90;1.87;;;;;;;-0.03;100.00;100446.53;4913879;29;20052;-79
2023/04/12 02:05:13;;;;;;;4.70;1.77;;;;;;;-0.09;100.00;100446.41;4881346;29;20059;-80
2023/04/12 02:07:41;;;;;;;2.80;1.70;;;;;;;-0.11;100.00;100448.09;4893639;29;20045;-79
2023/04/12 02:10:12;;;;;;;2.47;2.00;;;;;;;-0.11;100.00;100438.59;4882459;29;21396;-80
2023/04/12 02:12:40;;;;;;;5.67;2.53;;;;;;;-0.06;100.00;100438.69;4898290;29;20049;-78
2023/04/12 02:15:07;;;;;;;4.77;1.80;;;;;;;-0.03;100.00;100433.53;4883397;29;20092;-80
2023/04/12 02:17:36;;;;;;;2.97;1.93;;;;;;;0.14;100.00;100426.94;4900583;29;20033;-81
2023/04/12 02:20:10;;;;;;;2.73;1.67;;;;;;;0.25;100.00;100429.72;4888844;29;20037;-79
2023/04/12 02:22:37;;;;;;;4.97;2.20;;;;;;;0.11;100.00;100424.28;4897234;29;20048;-78
2023/04/12 02:25:07;;;;;;;3.13;2.23;;;;;;;-0.03;100.00;100418.84;4895187;29;20049;-80
2023/04/12 02:27:34;;;;;;;4.10;1.97;;;;;;;-0.07;100.00;100418.78;4904633;29;20040;-79
2023/04/12 02:30:01;;;;;;;3.73;1.73;;;;;;;-0.11;100.00;100415.22;4897743;29;20040;-79
2023/04/12 02:32:29;;;;;;;8.67;2.83;;;;;;;-0.29;100.00;100418.34;4891679;29;20049;-80
2023/04/12 02:34:57;;;;;;;5.13;2.10;;;;;;;-0.36;100.00;100408.69;4897911;29;20037;-80
2023/04/12 02:37:26;;;;;;;4.20;2.20;;;;;;;-0.38;100.00;100409.50;4896626;29;20067;-80
2023/04/12 02:39:55;;;;;;;3.60;2.10;;;;;;;-0.40;100.00;100400.84;4882479;29;20082;-80
2023/04/12 02:42:22;;;;;;;4.23;1.80;;;;;;;-0.31;100.00;100396.69;4896189;29;20056;-80
2023/04/12 02:44:49;;;;;;;3.93;1.70;;;;;;;-0.19;100.00;100389.97;4897499;29;20427;-79
2023/04/12 02:47:15;;;;;;;3.27;1.90;;;;;;;-0.20;100.00;100389.09;4893511;29;20041;-80
2023/04/12 02:49:42;;;;;;;4.30;2.00;;;;;;;-0.19;100.00;100383.06;4894525;29;20044;-79
2023/04/12 02:52:09;;;;;;;3.20;1.90;;;;;;;-0.15;100.00;100379.69;4874276;29;20063;-79
2023/04/12 02:54:36;;;;;;;3.70;2.20;;;;;;;-0.04;100.00;100370.34;4878444;29;20063;-80
2023/04/12 02:57:03;;;;;;;3.10;2.10;;;;;;;-0.05;100.00;100366.00;4893549;29;20041;-80
2023/04/12 02:59:30;;;;;;;4.63;2.23;;;;;;;-0.29;100.00;100368.16;4913682;29;20037;-80
2023/04/12 03:01:56;;;;;;;3.07;1.50;;;;;;;-0.49;100.00;100374.72;4909880;29;20131;-79
2023/04/12 03:04:28;;;;;;;2.97;1.80;;;;;;;-0.58;100.00;100376.28;4917365;29;20127;-80
2023/04/12 03:06:55;;;;;;;3.40;2.13;;;;;;;-0.57;100.00;100379.75;4914042;29;20127;-79
2023/04/12 03:09:22;;;;;;;5.00;2.23;;;;;;;-0.58;100.00;100373.69;4892110;29;20439;-79
2023/04/12 03:11:49;;;;;;;3.43;2.20;;;;;;;-0.61;100.00;100383.97;4892163;29;20140;-80
2023/04/12 03:14:16;;;;;;;4.30;2.00;;;;;;;-0.59;100.00;100376.22;4899219;29;20040;-80
2023/04/12 03:16:43;;;;;;;2.83;2.07;;;;;;;-0.61;100.00;100368.41;4886433;29;20048;-80
2023/04/12 03:19:10;;;;;;;3.53;2.60;;;;;;;-0.65;100.00;100366.63;4902892;29;20407;-80
2023/04/12 03:21:37;;;;;;;4.90;2.33;;;;;;;-0.60;100.00;100364.97;4898886;29;20036;-79
2023/04/12 03:24:04;;;;;;;4.50;2.10;;;;;;;-0.59;100.00;100358.97;4897313;29;20100;-80
2023/04/12 03:26:31;;;;;;;4.83;2.47;;;;;;;-0.69;100.00;100363.91;4899456;29;20104;-80
2023/04/12 03:29:07;;;;;;;4.03;2.03;;;;;;;-0.70;100.00;100357.84;4899539;29;20044;-79
2023/04/12 03:31:36;;;;;;;4.33;2.17;;;;;;;-0.66;100.00;100345.84;4899844;29;20107;-80
2023/04/12 03:34:03;;;;;;;3.20;2.03;;;;;;;-0.67;100.00;100354.47;4910727;29;20055;-80
2023/04/12 03:36:30;;;;;;;3.87;2.50;;;;;;;-0.71;100.00;100352.63;4902600;29;20084;-79
2023/04/12 03:38:56;;;;;;;4.07;2.10;;;;;;;-0.80;100.00;100353.31;4907517;29;20092;-79
2023/04/12 03:41:25;;;;;;;4.67;2.33;;;;;;;-0.81;100.00;100356.78;4916966;29;20104;-79
2023/04/12 03:43:52;;;;;;;4.13;2.20;;;;;;;-0.81;100.00;100359.38;4928084;29;20518;-80
2023/04/12 03:46:18;;;;;;;3.37;2.07;;;;;;;-0.82;100.00;100354.16;4905408;29;20545;-81
2023/04/12 03:48:45;;;;;;;2.60;1.97;;;;;;;-0.85;100.00;100344.56;4921550;29;20043;-80
2023/04/12 03:51:12;;;;;;;3.73;2.13;;;;;;;-0.52;100.00;100341.75;4919531;29;20062;-81
2023/04/12 03:53:39;;;;;;;3.83;2.37;;;;;;;-0.60;100.00;100339.03;4914718;29;20187;-81
2023/04/12 03:56:06;;;;;;;3.87;2.20;;;;;;;-0.65;100.00;100335.47;4925566;29;20048;-80
2023/04/12 03:58:33;;;;;;;5.40;2.10;;;;;;;-0.67;100.00;100324.22;4880396;29;20037;-78
2023/04/12 04:01:04;;;;;;;5.17;2.30;;;;;;;-0.75;100.00;100323.19;4893164;29;20513;-80
2023/04/12 04:03:33;;;;;;;3.53;2.47;;;;;;;-0.74;100.00;100318.88;4895282;29;20557;-81
2023/04/12 04:06:01;;;;;;;2.97;1.80;;;;;;;-0.75;100.00;100311.94;4895052;29;20068;-80
2023/04/12 04:08:28;;;;;;;4.30;1.90;;;;;;;-0.74;100.00;100313.69;4879911;29;20466;-82
2023/04/12 04:10:56;;;;;;;3.63;1.90;;;;;;;-0.89;100.00;100315.13;4895333;29;20040;-80
2023/04/12 04:13:22;;;;;;;5.03;2.07;;;;;;;-1.01;100.00;100316.56;4878845;29;20136;-80
2023/04/12 04:15:55;;;;;;;3.40;1.90;;;;;;;-1.04;100.00;100324.28;4880295;29;20056;-81
2023/04/12 04:18:21;;;;;;;3.30;2.20;;;;;;;-1.05;100.00;100318.25;4896939;29;20488;-79
2023/04/12 04:20:48;;;;;;;4.20;2.50;;;;;;;-0.99;100.00;100314.91;4895940;29;20044;-79
2023/04/12 04:23:16;;;;;;;3.23;2.20;;;;;;;-0.97;100.00;100313.22;4900074;29;20067;-80
2023/04/12 04:25:43;;;;;;;3.10;2.00;;;;;;;-0.95;100.00;100307.22;4869551;29;20052;-80
2023/04/12 04:28:10;;;;;;;3.90;2.10;;;;;;;-0.79;100.00;100302.31;4883206;29;20040;-81
2023/04/12 04:30:37;;;;;;;3.77;2.10;;;;;;;-0.87;100.00;100307.38;4898428;29;20044;-82
2023/04/12 04:33:06;;;;;;;3.30;2.37;;;;;;;-0.95;100.00;100314.97;4898063;29;20131;-80
2023/04/12 04:35:32;;;;;;;3.67;2.20;;;;;;;-0.98;100.00;100306.28;4897967;29;20044;-80
2023/04/12 04:38:00;;;;;;;4.13;2.10;;;;;;;-0.94;100.00;100302.91;4897708;29;20048;-81
2023/04/12 04:40:28;;;;;;;3.43;2.00;;;;;;;-0.80;100.00;100301.47;4898323;29;20045;-80
2023/04/12 04:42:54;;;;;;;2.90;1.70;;;;;;;-0.83;100.00;100311.78;4891596;29;20045;-80
2023/04/12 04:45:25;;;;;;;3.63;2.00;;;;;;;-0.80;100.00;100309.25;4900401;29;20067;-81
2023/04/12 04:47:52;;;;;;;4.07;2.40;;;;;;;-0.65;100.00;100303.47;4927295;29;20127;-82
2023/04/12 04:50:23;;;;;;;3.97;2.10;;;;;;;-0.68;100.00;100299.09;4897441;29;20056;-81
2023/04/12 04:52:53;;;;;;;4.00;1.90;;;;;;;-0.81;100.00;100304.03;4866016;29;20070;-81
2023/04/12 04:55:26;;;;;;;4.57;2.53;;;;;;;-0.85;100.00;100297.88;4897245;29;20043;-81
2023/04/12 04:57:53;;;;;;;5.70;2.40;;;;;;;-0.74;100.00;100298.13;4881897;29;20040;-81
2023/04/12 05:00:21;;;;;;;4.03;2.20;;;;;;;-0.71;100.00;100298.16;4912841;29;20108;-79
2023/04/12 05:02:47;;;;;;;3.73;1.70;;;;;;;-0.80;100.00;100292.81;4871003;29;20132;-80
2023/04/12 05:05:21;;;;;;;3.53;1.90;;;;;;;-0.77;100.00;100285.06;4888651;29;20080;-81
2023/04/12 05:07:48;;;;;;;4.57;2.10;;;;;;;-0.79;100.00;100297.13;4877815;29;20071;-81
2023/04/12 05:10:15;;;;;;;4.13;2.00;;;;;;;-0.77;100.00;100292.84;4867372;29;20053;-80
2023/04/12 05:12:41;;;;;;;4.67;2.23;;;;;;;-0.69;100.00;100292.16;4883818;29;20045;-79
2023/04/12 05:15:09;;;;;;;3.10;1.90;;;;;;;-0.68;100.00;100285.25;4870442;29;20083;-80
2023/04/12 05:17:38;;;;;;;4.27;2.00;;;;;;;-0.69;100.00;100280.91;4897603;29;20582;-80
2023/04/12 05:20:07;;;;;;;3.07;1.70;;;;;;;-0.58;100.00;100280.28;4888237;29;20041;-79
2023/04/12 05:22:34;;;;;;;3.47;2.00;;;;;;;-0.57;100.00;100282.03;4880044;29;20037;-79
2023/04/12 05:25:02;;;;;;;4.10;2.20;;;;;;;-0.58;100.00;100276.81;4878898;29;20522;-81
2023/04/12 05:27:29;;;;;;;2.10;1.47;;;;;;;-0.49;100.00;100274.38;4882584;29;20040;-80
2023/04/12 05:29:56;;;;;;;3.90;2.30;;;;;;;-0.46;100.00;100281.34;4872634;29;20047;-82
2023/04/12 05:32:24;;;;;;;4.93;2.10;;;;;;;-0.46;100.00;100277.00;4895618;29;20041;-81
2023/04/12 05:34:51;;;;;;;4.87;2.20;;;;;;;-0.43;100.00;100279.66;4871989;29;20076;-79
2023/04/12 05:37:18;;;;;;;3.60;2.27;;;;;;;-0.42;100.00;100278.84;4894207;29;20044;-82
2023/04/12 05:39:45;;;;;;;3.93;2.47;;;;;;;-0.29;100.00;100277.31;4919524;29;20041;-80
2023/04/12 05:42:11;;;;;;;4.13;2.20;;;;;;;-0.24;100.00;100280.88;4883822;29;20069;-81
2023/04/12 05:44:39;;;;;;;3.87;2.33;;;;;;;-0.19;100.00;100276.59;4894326;29;20040;-81
2023/04/12 05:47:06;;;;;;;3.87;2.17;;;;;;;-0.15;100.00;100275.81;4896811;29;20067;-82
2023/04/12 05:49:32;;;;;;;5.30;2.57;;;;;;;-0.09;100.00;100268.13;4896242;29;20039;-82
2023/04/12 05:51:59;;;;;;;5.37;2.60;;;;;;;-0.07;100.00;100271.63;4884881;29;20438;-81
2023/04/12 05:54:26;;;;;;;3.83;2.67;;;;;;;0.02;100.00;100270.91;4891208;29;20044;-80
2023/04/12 05:56:54;;;;;;;3.73;2.20;;;;;;;0.03;100.00;100266.59;4888367;29;20044;-79
2023/04/12 05:59:21;;;;;;;3.57;2.53;;;;;;;0.09;100.00;100262.38;4891888;29;20032;-81
2023/04/12 06:01:48;;;;;;;4.00;2.60;;;;;;;0.20;100.00;100255.59;4894301;29;20237;-80
2023/04/12 06:04:15;;;;;;;5.40;3.20;;;;;;;0.19;100.00;100252.97;4887497;29;20044;-82
2023/04/12 06:06:42;;;;;;;5.40;2.83;;;;;;;0.23;100.00;100249.56;4893606;29;20048;-80
2023/04/12 06:09:09;;;;;;;5.73;2.80;;;;;;;0.33;100.00;100242.75;4864368;29;20037;-83
2023/04/12 06:11:37;;;;;;;5.30;2.80;;;;;;;0.56;100.00;100236.16;4881318;29;20045;-81
2023/04/12 06:14:04;;;;;;;5.57;2.47;;;;;;;0.78;100.00;100232.13;4898771;29;20044;-80
2023/04/12 06:16:31;;;;;;;6.80;3.17;;;;;;;1.34;100.00;100224.91;4906739;29;20040;-80
2023/04/12 06:18:58;;;;;;;6.50;2.63;;;;;;;1.41;100.00;100223.25;4907613;29;20033;-80
2023/04/12 06:21:25;;;;;;;4.37;2.47;;;;;;;1.36;100.00;100215.41;4885374;29;20076;-83
2023/04/12 06:23:52;;;;;;;6.57;2.73;;;;;;;1.56;100.00;100219.94;4896600;29;20108;-80
2023/04/12 06:26:19;;;;;;;5.60;2.60;;;;;;;2.43;100.00;100212.72;4889096;29;20581;-80
2023/04/12 06:28:45;;;;;;;4.43;2.73;;;;;;;4.04;100.00;100208.72;4878179;29;20048;-80
2023/04/12 06:31:12;;;;;;;3.43;1.70;;;;;;;5.64;100.00;100198.38;4880165;29;20041;-82
2023/04/12 06:33:39;;;;;;;3.17;2.13;;;;;;;7.00;100.00;100190.84;4877841;29;20092;-81
2023/04/12 06:36:06;;;;;;;3.60;1.93;;;;;;;7.97;93.02;100182.34;4893700;29;20117;-81
2023/04/12 06:38:33;;;;;;;3.58;1.95;;;;;;;8.96;75.84;100176.03;4877256;29;20047;-81
2023/04/12 06:41:00;;;;;;;3.55;2.03;;;;;;;9.73;73.04;100159.28;4877982;29;20076;-82
2023/04/12 06:43:29;;;;;;;3.92;2.53;;;;;;;10.69;69.01;100167.31;4892967;29;20194;-81
2023/04/12 06:45:55;;;;;;;4.95;2.20;;;;;;;10.62;67.12;100171.03;4877802;29;20049;-82
2023/04/12 06:48:22;;;;;;;3.28;2.38;;;;;;;10.94;65.69;100161.31;4879930;29;20487;-79
2023/04/12 06:50:49;;;;;;;4.03;2.83;;;;;;;11.67;64.42;100166.91;4895371;29;20463;-83
2023/04/12 06:53:16;;;;;;;3.00;2.13;;;;;;;11.98;65.82;100160.63;4892921;29;20055;-81
2023/04/12 06:55:42;;;;;;;4.50;2.25;;;;;;;12.25;64.15;100166.75;4895151;29;20040;-81
2023/04/12 06:58:09;;;;;;;4.00;2.85;;;;;;;11.85;59.87;100157.53;4879575;29;20045;-82
2023/04/12 07:00:36;;;;;;;4.07;2.40;;;;;;;11.79;66.86;100157.72;4899381;29;20045;-80
2023/04/12 07:03:03;;;;;;;2.88;2.38;;;;;;;11.58;62.69;100156.63;4892276;29;20048;-81
2023/04/12 07:05:30;;;;;;;3.42;2.33;;;;;;;11.71;64.34;100144.75;4895535;29;20048;-81
2023/04/12 07:07:57;;;;;;;5.00;2.33;;;;;;;12.12;68.57;100139.84;4891881;29;20048;-81
2023/04/12 07:10:23;;;;;;;5.70;2.55;;;;;;;12.24;67.39;100144.69;4891750;29;20037;-82
2023/04/12 07:12:50;;;;;;;5.35;3.20;;;;;;;12.22;69.04;100132.44;4893411;29;20498;-81
2023/04/12 07:15:17;;;;;;;6.80;2.80;;;;;;;12.15;69.18;100134.44;4890645;29;20100;-81
2023/04/12 07:17:44;;;;;;;4.10;2.50;;;;;;;11.97;69.30;100141.25;4890053;29;20044;-81
2023/04/12 07:20:11;;;;;;;5.72;2.88;;;;;;;11.63;70.77;100130.03;4889310;29;20048;-80
2023/04/12 07:22:37;;;;;;;6.47;2.97;;;;;;;11.69;66.85;100132.50;4892613;29;20036;-81
2023/04/12 07:25:08;;;;;;;4.40;2.45;;;;;;;11.32;70.51;100128.38;4891899;29;20478;-81
2023/04/12 07:27:35;;;;;;;3.67;2.20;;;;;;;11.50;72.89;100119.84;4897236;29;20060;-82
2023/04/12 07:30:02;;;;;;;5.40;2.40;;;;;;;11.70;75.46;100124.50;4893505;29;20063;-83
2023/04/12 07:32:29;;;;;;;4.75;2.58;;;;;;;11.66;72.21;100112.25;4888842;29;20044;-81
2023/04/12 07:34:56;;;;;;;5.18;2.20;;;;;;;11.74;75.04;100118.16;4884867;29;20104;-81
2023/04/12 07:37:23;;;;;;;3.28;2.00;;;;;;;11.72;75.36;100117.34;4877066;29;20100;-81
2023/04/12 07:39:50;;;;;;;8.32;2.97;;;;;;;11.62;69.11;100112.44;4908371;29;20036;-81
2023/04/12 07:42:16;;;;;;;3.97;2.13;;;;;;;11.39;69.02;100113.19;4890873;29;20127;-82
2023/04/12 07:44:43;;;;;;;4.88;1.92;;;;;;;11.25;72.75;100103.91;4876010;29;20051;-81
2023/04/12 07:47:10;;;;;;;2.72;1.60;;;;;;;11.21;69.42;100102.28;4892776;29;20036;-82
2023/04/12 07:49:37;;;;;;;2.75;1.52;;;;;;;10.96;66.70;100102.19;4893830;29;20036;-82
2023/04/12 07:52:04;;;;;;;3.58;2.10;;;;;;;10.94;72.42;100097.88;4892327;29;20042;-81
2023/04/12 07:54:30;;;;;;;3.28;1.83;;;;;;;10.82;73.32;100106.16;4876988;29;20068;-81
2023/04/12 07:56:59;;;;;;;4.85;1.98;;;;;;;10.80;74.88;100086.84;4892234;29;20049;-80
2023/04/12 07:59:26;;;;;;;3.50;1.85;;;;;;;10.74;73.76;100087.91;4885552;29;20619;-81
2023/04/12 08:01:52;;;;;;;5.45;2.22;;;;;;;10.05;69.97;100087.22;4878047;29;20148;-81
2023/04/12 08:04:20;;;;;;;2.83;1.58;;;;;;;10.16;71.06;100082.50;4881929;29;20052;-80
2023/04/12 08:06:46;;;;;;;6.53;2.15;;;;;;;10.38;77.86;100088.06;4877078;29;20426;-83
2023/04/12 08:09:14;;;;;;;4.22;2.13;;;;;;;9.96;75.10;100076.91;4909161;29;20037;-82
2023/04/12 08:11:41;;;;;;;2.95;1.75;;;;;;;9.83;74.39;100078.13;4901785;29;20148;-83
2023/04/12 08:14:09;;;;;;;3.10;1.83;;;;;;;9.92;77.93;100070.00;4890229;29;20622;-82
2023/04/12 08:16:35;;;;;;;3.20;2.35;;;;;;;10.04;83.23;100064.38;4902247;29;20153;-81
2023/04/12 08:19:03;;;;;;;2.50;1.90;;;;;;;10.11;77.62;100067.72;4892043;29;20037;-81
2023/04/12 08:21:29;;;;;;;4.40;2.38;;;;;;;10.20;77.08;100053.38;4881643;29;20491;-82
2023/04/12 08:23:56;;;;;;;3.47;1.90;;;;;;;10.24;78.55;100052.41;4878563;29;20060;-82
2023/04/12 08:26:25;;;;;;;4.18;2.25;;;;;;;10.22;81.96;100055.09;4889963;29;20054;-83
2023/04/12 08:28:52;;;;;;;3.58;2.17;;;;;;;10.27;78.23;100055.84;4888531;29;20076;-83
2023/04/12 08:31:18;;;;;;;5.80;1.95;;;;;;;10.30;75.19;100046.97;4889787;29;20499;-81
2023/04/12 08:33:45;;;;;;;4.03;2.10;;;;;;;9.91;72.16;100054.19;4875668;29;20058;-81
2023/04/12 08:36:12;;;;;;;4.35;1.88;;;;;;;10.10;72.38;100039.59;4890335;29;20040;-83
2023/04/12 08:38:39;;;;;;;6.57;2.63;;;;;;;9.92;70.54;100046.25;4890606;29;20139;-82
2023/04/12 08:41:12;;;;;;;5.70;2.10;;;;;;;10.10;73.81;100029.03;4895036;29;20044;-82
2023/04/12 08:43:43;;;;;;;2.63;1.85;;;;;;;10.32;76.98;100024.00;4892375;29;20045;-83
2023/04/12 08:46:14;;;;;;;5.82;2.55;;;;;;;10.27;72.51;100020.66;4893787;29;20064;-83
2023/04/12 08:48:44;;;;;;;4.05;2.17;;;;;;;10.39;73.02;100023.78;4891061;29;20049;-82
2023/04/12 08:51:13;;;;;;;4.03;1.70;;;;;;;10.60;76.38;100019.66;4877937;29;20056;-81
2023/04/12 08:53:40;;;;;;;4.13;2.22;;;;;;;10.81;72.20;100012.81;4896594;29;20437;-83
2023/04/12 08:56:10;;;;;;;3.33;1.92;;;;;;;11.09;73.99;100004.84;4901003;29;20051;-80
2023/04/12 08:58:40;;;;;;;4.00;1.77;;;;;;;11.39;69.82;99994.16;4894397;29;20048;-80
2023/04/12 09:01:17;;;;;;;3.97;1.55;;;;;;;11.50;63.55;99992.88;4891675;29;20521;-81
2023/04/12 09:03:45;;;;;;;2.97;1.50;;;;;;;11.57;64.65;99986.44;4895022;29;20146;-82
2023/04/12 09:06:12;;;;;;;4.65;1.52;;;;;;;11.87;69.43;99988.97;4880813;29;20426;-80
2023/04/12 09:08:50;;;;;;;3.08;1.60;;;;;;;12.31;67.43;99982.00;4893130;29;20104;-83
2023/04/12 09:11:24;;;;;;;3.75;1.58;;;;;;;12.46;62.82;99974.38;4896651;29;20045;-82
2023/04/12 09:13:51;;;;;;;5.32;1.50;;;;;;;12.85;60.07;99974.56;4872831;29;20044;-82
2023/04/12 09:16:33;;;;;;;3.10;1.45;;;;;;;12.79;58.45;99967.75;4890051;29;20049;-81
2023/04/12 09:19:02;;;;;;;3.33;1.63;;;;;;;12.56;57.49;99958.06;4890203;29;20064;-82
2023/04/12 09:21:29;;;;;;;3.40;1.55;;;;;;;12.93;57.66;99951.25;4893983;29;20418;-81
2023/04/12 09:24:11;;;;;;;2.95;1.63;;;;;;;13.23;53.76;99952.66;4874095;29;20037;-82
2023/04/12 09:26:40;;;;;;;4.95;2.05;;;;;;;13.29;52.76;99946.25;4876896;29;20116;-80
2023/04/12 09:29:22;;;;;;;2.83;1.35;;;;;;;13.64;58.94;99941.19;4888392;29;20045;-81
2023/04/12 09:31:56;;;;;;;3.75;1.50;;;;;;;13.48;51.42;99941.00;4893294;29;20043;-81
2023/04/12 09:34:23;;;;;;;6.32;2.65;;;;;;;13.84;53.96;99932.31;4893434;29;20044;-80
2023/04/12 09:36:53;;;;;;;8.52;2.55;;;;;;;13.87;52.25;99922.41;4887292;29;20112;-82
2023/04/12 09:39:29;;;;;;;40.75;25.85;;;;;;;13.71;54.86;99911.66;4877916;29;20040;-81
2023/04/12 09:42:10;;;;;;;4.45;2.10;;;;;;;13.84;53.96;99919.03;4891335;29;20075;-80
2023/04/12 09:44:57;;;;;;;1.95;1.30;;;;;;;14.06;52.07;99907.38;4901042;29;20083;-81
2023/04/12 09:47:37;;;;;;;2.75;1.50;;;;;;;14.41;49.53;99909.28;4891398;29;20036;-81
2023/04/12 09:50:06;;;;;;;4.07;1.20;;;;;;;14.06;44.55;99914.47;4894012;29;20039;-81
2023/04/12 09:52:37;;;;;;;4.25;1.83;;;;;;;13.62;45.34;99895.25;4902983;29;20036;-81
2023/04/12 09:55:09;;;;;;;3.78;1.90;;;;;;;14.06;48.49;99907.38;4887305;29;20049;-80
2023/04/12 09:57:44;;;;;;;3.78;1.67;;;;;;;14.03;46.20;99894.22;4900604;29;20076;-81
2023/04/12 10:00:16;;;;;;;4.60;1.55;;;;;;;14.37;49.38;99889.94;4892206;29;20040;-80
2023/04/12 10:02:46;;;;;;;4.07;1.50;;;;;;;14.34;47.20;99896.28;4866416;29;20048;-81
2023/04/12 10:05:19;;;;;;;8.40;4.65;;;;;;;14.23;46.18;99884.47;4878636;29;20064;-81
2023/04/12 10:07:46;;;;;;;4.65;1.67;;;;;;;14.18;46.91;99875.84;4877468;29;20047;-82
2023/04/12 10:10:15;;;;;;;4.28;1.42;;;;;;;14.34;45.94;99872.38;4878276;29;20062;-80
2023/04/12 10:12:45;;;;;;;3.15;1.45;;;;;;;14.41;43.44;99866.75;4891461;29;20049;-81
2023/04/12 10:15:14;;;;;;;2.53;1.48;;;;;;;14.59;44.42;99858.78;4890685;29;20177;-81
2023/04/12 10:17:45;;;;;;;5.45;1.42;;;;;;;14.48;43.62;99857.59;4894921;29;20048;-82
2023/04/12 10:20:14;;;;;;;10.48;3.70;;;;;;;14.86;44.13;99845.03;4879355;29;20483;-82
2023/04/12 10:22:42;;;;;;;15.60;7.18;;;;;;;15.05;44.27;99844.94;4894862;29;20087;-82
2023/04/12 10:25:11;;;;;;;38.75;20.85;;;;;;;15.10;41.02;99833.13;4892933;29;20028;-81
2023/04/12 10:27:42;;;;;;;2.78;2.05;;;;;;;15.02;43.99;99839.78;4874361;29;20065;-83
2023/04/12 10:30:29;;;;;;;2.67;1.50;;;;;;;14.62;40.87;99825.84;4906038;29;20048;-81
2023/04/12 10:33:07;;;;;;;2.58;1.30;;;;;;;14.68;42.03;99819.38;4896839;29;21891;-80
2023/04/12 10:35:56;;;;;;;3.60;1.38;;;;;;;14.87;45.43;99812.16;4911425;29;20142;-80
2023/04/12 10:38:26;;;;;;;3.38;1.52;;;;;;;15.31;43.24;99814.31;4909577;29;20045;-82
2023/04/12 10:41:12;;;;;;;5.05;1.60;;;;;;;15.44;38.91;99802.91;4880890;29;20100;-80
2023/04/12 10:43:46;;;;;;;2.70;1.38;;;;;;;15.73;41.00;99808.50;4910230;29;20064;-78
2023/04/12 10:46:38;;;;;;;3.33;1.60;;;;;;;15.59;40.06;99795.03;4891034;29;20043;-80
2023/04/12 10:49:09;;;;;;;6.22;1.45;;;;;;;15.76;39.90;99787.88;4896097;29;20456;-81
2023/04/12 10:51:36;;;;;;;3.08;1.35;;;;;;;16.11;40.70;99781.50;4892303;29;20052;-81
2023/04/12 10:54:18;;;;;;;1.85;1.17;;;;;;;16.32;40.89;99788.28;4894325;29;20076;-81
2023/04/12 10:56:48;;;;;;;4.50;1.83;;;;;;;16.13;38.95;99777.78;4897408;29;20096;-81
2023/04/12 10:59:15;;;;;;;3.13;1.40;;;;;;;16.23;39.71;99763.00;4893478;29;20044;-83
2023/04/12 11:02:10;;;;;;;2.65;1.23;;;;;;;16.54;40.50;99750.53;4897095;29;20080;-80
2023/04/12 11:04:38;;;;;;;1.95;1.30;;;;;;;16.62;36.55;99753.59;4896889;29;20043;-80
2023/04/12 11:07:10;;;;;;;2.80;1.35;;;;;;;16.76;37.35;99747.47;4868842;29;20055;-82
2023/04/12 11:09:44;;;;;;;2.33;1.27;;;;;;;16.85;37.07;99747.78;4895351;29;20041;-80
2023/04/12 11:12:12;;;;;;;4.50;2.03;;;;;;;16.76;37.09;99751.00;4904806;29;20057;-80
2023/04/12 11:14:46;;;;;;;4.10;1.45;;;;;;;16.45;37.45;99753.75;4900920;29;20051;-82
2023/04/12 11:17:15;;;;;;;6.30;2.47;;;;;;;16.39;36.16;99738.94;4909460;29;20096;-82
2023/04/12 11:19:48;;;;;;;1.80;1.25;;;;;;;15.76;36.21;99733.75;4892448;29;20048;-81
2023/04/12 11:22:16;;;;;;;3.53;1.50;;;;;;;15.41;36.79;99717.91;4879293;29;20693;-79
2023/04/12 11:24:51;;;;;;;3.83;1.38;;;;;;;15.86;38.42;99728.75;5071169;28;20489;-79
2023/04/12 11:27:19;;;;;;;4.40;1.40;;;;;;;16.18;38.17;99726.91;5050952;28;20044;-82
2023/04/12 11:29:49;;;;;;;2.08;1.30;;;;;;;16.49;39.39;99713.50;5054449;28;20076;-81
2023/04/12 11:32:16;;;;;;;1.30;1.08;;;;;;;16.73;38.57;99721.84;5057554;28;20097;-79
2023/04/12 11:34:44;;;;;;;3.45;1.50;;;;;;;16.49;36.77;99716.16;5066550;28;20537;-80